createdAt,value
2017-12-25T00:00:48.393Z,0
2017-12-25T00:01:48.654Z,0
2017-12-25T00:02:48.656Z,0
2017-12-25T00:03:48.462Z,0
2017-12-25T00:04:48.699Z,0
2017-12-25T00:05:48.687Z,0
2017-12-25T00:06:48.227Z,0
2017-12-25T00:07:48.512Z,0
2017-12-25T00:08:48.738Z,0
2017-12-25T00:09:48.494Z,0
2017-12-25T00:10:48.768Z,0
2017-12-25T00:11:48.526Z,0
2017-12-25T00:12:48.538Z,0
2017-12-25T00:13:48.798Z,0
2017-12-25T00:14:48.559Z,0
2017-12-25T00:15:48.574Z,0
2017-12-25T00:16:48.335Z,0
2017-12-25T00:17:48.679Z,0
2017-12-25T00:18:48.616Z,0
2017-12-25T00:19:48.630Z,0
2017-12-25T00:20:48.645Z,0
2017-12-25T00:21:48.908Z,0
2017-12-25T00:22:48.420Z,0
2017-12-25T00:23:48.434Z,0
2017-12-25T00:24:48.951Z,0
2017-12-25T00:25:48.717Z,0
2017-12-25T00:26:48.985Z,0
2017-12-25T00:27:48.853Z,0
2017-12-25T00:28:48.755Z,0
2017-12-25T00:29:49.019Z,0
2017-12-25T00:30:49.040Z,0
2017-12-25T00:31:48.810Z,0
2017-12-25T00:32:48.862Z,0
2017-12-25T00:33:48.835Z,0
2017-12-25T00:34:48.841Z,0
2017-12-25T00:35:48.851Z,0
2017-12-25T00:36:49.125Z,0
2017-12-25T00:37:48.635Z,0
2017-12-25T00:38:49.151Z,0
2017-12-25T00:39:48.426Z,0
2017-12-25T00:40:48.928Z,0
2017-12-25T00:41:48.682Z,0
2017-12-25T00:42:49.202Z,0
2017-12-25T00:43:48.971Z,0
2017-12-25T00:44:49.247Z,0
2017-12-25T00:45:48.996Z,0
2017-12-25T00:46:49.260Z,0
2017-12-25T00:47:49.074Z,0
2017-12-25T00:48:49.047Z,0
2017-12-25T00:49:49.050Z,0
2017-12-25T00:50:48.814Z,0
2017-12-25T00:51:49.328Z,0
2017-12-25T00:52:48.838Z,0
2017-12-25T00:53:49.107Z,0
2017-12-25T00:54:49.371Z,0
2017-12-25T00:55:49.133Z,0
2017-12-25T00:56:49.399Z,0
2017-12-25T00:57:48.914Z,0
2017-12-25T00:58:49.175Z,0
2017-12-25T00:59:49.442Z,0
2017-12-25T01:00:49.452Z,0
2017-12-25T01:01:49.469Z,0
2017-12-25T01:02:50.034Z,0
2017-12-25T01:03:49.249Z,0
2017-12-25T01:04:49.257Z,0
2017-12-25T01:05:49.534Z,0
2017-12-25T01:06:49.284Z,0
2017-12-25T01:07:49.048Z,0
2017-12-25T01:08:49.063Z,0
2017-12-25T01:09:49.323Z,0
2017-12-25T01:10:49.081Z,0
2017-12-25T01:11:49.353Z,0
2017-12-25T01:12:49.114Z,0
2017-12-25T01:13:49.128Z,0
2017-12-25T01:14:49.140Z,0
2017-12-25T01:15:49.656Z,0
2017-12-25T01:16:49.671Z,0
2017-12-25T01:17:49.740Z,0
2017-12-25T01:18:49.691Z,0
2017-12-25T01:19:49.710Z,0
2017-12-25T01:20:49.728Z,0
2017-12-25T01:21:49.741Z,0
2017-12-25T01:22:49.775Z,0
2017-12-25T01:23:49.267Z,0
2017-12-25T01:24:49.525Z,0
2017-12-25T01:25:49.787Z,0
2017-12-25T01:26:49.553Z,0
2017-12-25T01:27:49.315Z,0
2017-12-25T01:28:49.323Z,0
2017-12-25T01:29:49.336Z,0
2017-12-25T01:30:49.849Z,0
2017-12-25T01:31:49.615Z,0
2017-12-25T01:32:49.932Z,0
2017-12-25T01:33:49.637Z,0
2017-12-25T01:34:49.901Z,0
2017-12-25T01:35:49.917Z,0
2017-12-25T01:36:49.924Z,0
2017-12-25T01:37:49.941Z,0
2017-12-25T01:38:49.706Z,0
2017-12-25T01:39:49.473Z,0
2017-12-25T01:40:49.727Z,0
2017-12-25T01:41:49.491Z,0
2017-12-25T01:42:49.755Z,0
2017-12-25T01:43:50.041Z,0
2017-12-25T01:44:49.787Z,0
2017-12-25T01:45:50.050Z,0
2017-12-25T01:46:49.299Z,0
2017-12-25T01:47:49.872Z,0
2017-12-25T01:48:50.089Z,0
2017-12-25T01:49:49.846Z,0
2017-12-25T01:50:49.861Z,0
2017-12-25T01:51:50.128Z,0
2017-12-25T01:52:49.632Z,0
2017-12-25T01:53:49.903Z,0
2017-12-25T01:54:49.910Z,0
2017-12-25T01:55:49.926Z,0
2017-12-25T01:56:50.190Z,0
2017-12-25T01:57:49.960Z,0
2017-12-25T01:58:49.967Z,0
2017-12-25T01:59:50.228Z,0
2017-12-25T02:00:50.246Z,0
2017-12-25T02:01:50.001Z,0
2017-12-25T02:02:50.061Z,0
2017-12-25T02:03:49.774Z,0
2017-12-25T02:04:49.788Z,0
2017-12-25T02:05:50.328Z,0
2017-12-25T02:06:50.120Z,0
2017-12-25T02:07:50.081Z,0
2017-12-25T02:08:50.091Z,0
2017-12-25T02:09:50.107Z,0
2017-12-25T02:10:49.864Z,0
2017-12-25T02:11:49.887Z,0
2017-12-25T02:12:50.502Z,0
2017-12-25T02:13:50.158Z,0
2017-12-25T02:14:50.422Z,0
2017-12-25T02:15:50.196Z,0
2017-12-25T02:16:50.448Z,0
2017-12-25T02:17:50.010Z,0
2017-12-25T02:18:50.473Z,0
2017-12-25T02:19:50.490Z,0
2017-12-25T02:20:49.997Z,0
2017-12-25T02:21:50.512Z,0
2017-12-25T02:22:50.536Z,0
2017-12-25T02:23:50.286Z,0
2017-12-25T02:24:50.303Z,0
2017-12-25T02:25:50.062Z,0
2017-12-25T02:26:50.330Z,0
2017-12-25T02:27:50.438Z,0
2017-12-25T02:28:50.611Z,0
2017-12-25T02:29:50.625Z,0
2017-12-25T02:30:50.136Z,0
2017-12-25T02:31:50.647Z,0
2017-12-25T02:32:50.458Z,0
2017-12-25T02:33:50.426Z,0
2017-12-25T02:34:50.438Z,0
2017-12-25T02:35:50.458Z,0
2017-12-25T02:36:50.473Z,0
2017-12-25T02:37:50.768Z,0
2017-12-25T02:38:50.492Z,0
2017-12-25T02:39:50.767Z,0
2017-12-25T02:40:50.766Z,0
2017-12-25T02:41:50.532Z,0
2017-12-25T02:42:50.548Z,0
2017-12-25T02:43:50.320Z,0
2017-12-25T02:44:50.578Z,0
2017-12-25T02:45:50.584Z,0
2017-12-25T02:46:50.597Z,0
2017-12-25T02:47:50.869Z,0
2017-12-25T02:48:50.883Z,0
2017-12-25T02:49:50.447Z,0
2017-12-25T02:50:50.908Z,0
2017-12-25T02:51:50.921Z,0
2017-12-25T02:52:50.431Z,0
2017-12-25T02:53:50.942Z,0
2017-12-25T02:54:50.703Z,0
2017-12-25T02:55:50.464Z,0
2017-12-25T02:56:50.982Z,0
2017-12-25T02:57:50.245Z,0
2017-12-25T02:58:50.507Z,0
2017-12-25T02:59:50.523Z,0
2017-12-25T03:00:50.801Z,0
2017-12-25T03:01:50.799Z,0
2017-12-25T03:02:50.816Z,0
2017-12-25T03:03:51.092Z,0
2017-12-25T03:04:50.886Z,0
2017-12-25T03:05:51.105Z,0
2017-12-25T03:06:50.863Z,0
2017-12-25T03:07:51.138Z,0
2017-12-25T03:08:50.638Z,0
2017-12-25T03:09:51.159Z,0
2017-12-25T03:10:51.172Z,0
2017-12-25T03:11:50.924Z,0
2017-12-25T03:12:50.687Z,0
2017-12-25T03:13:51.233Z,0
2017-12-25T03:14:50.975Z,0
2017-12-25T03:15:50.989Z,0
2017-12-25T03:16:51.243Z,0
2017-12-25T03:17:51.003Z,0
2017-12-25T03:18:51.028Z,0
2017-12-25T03:19:51.322Z,0
2017-12-25T03:20:51.287Z,0
2017-12-25T03:21:51.050Z,0
2017-12-25T03:22:51.009Z,0
2017-12-25T03:23:51.323Z,0
2017-12-25T03:24:51.107Z,0
2017-12-25T03:25:51.107Z,0
2017-12-25T03:26:51.122Z,0
2017-12-25T03:27:51.390Z,0
2017-12-25T03:28:51.395Z,0
2017-12-25T03:29:51.414Z,0
2017-12-25T03:30:51.433Z,0
2017-12-25T03:31:51.188Z,0
2017-12-25T03:32:51.196Z,0
2017-12-25T03:33:51.460Z,0
2017-12-25T03:34:51.077Z,0
2017-12-25T03:35:51.483Z,0
2017-12-25T03:36:50.997Z,0
2017-12-25T03:37:51.261Z,0
2017-12-25T03:38:51.273Z,0
2017-12-25T03:39:51.286Z,0
2017-12-25T03:40:51.552Z,0
2017-12-25T03:41:50.806Z,0
2017-12-25T03:42:51.075Z,0
2017-12-25T03:43:51.342Z,0
2017-12-25T03:44:51.598Z,0
2017-12-25T03:45:51.110Z,0
2017-12-25T03:46:51.124Z,0
2017-12-25T03:47:51.645Z,0
2017-12-25T03:48:51.661Z,0
2017-12-25T03:49:51.013Z,0
2017-12-25T03:50:51.425Z,0
2017-12-25T03:51:51.475Z,0
2017-12-25T03:52:51.201Z,0
2017-12-25T03:53:51.478Z,0
2017-12-25T03:54:51.482Z,0
2017-12-25T03:55:50.988Z,0
2017-12-25T03:56:51.507Z,0
2017-12-25T03:57:51.776Z,0
2017-12-25T03:58:51.542Z,0
2017-12-25T03:59:51.798Z,0
2017-12-25T04:00:51.557Z,0
2017-12-25T04:01:51.832Z,0
2017-12-25T04:02:51.601Z,0
2017-12-25T04:03:51.599Z,0
2017-12-25T04:04:51.661Z,0
2017-12-25T04:05:51.626Z,0
2017-12-25T04:06:51.637Z,0
2017-12-25T04:07:51.650Z,0
2017-12-25T04:08:51.913Z,0
2017-12-25T04:09:51.422Z,0
2017-12-25T04:10:51.433Z,0
2017-12-25T04:11:51.952Z,0
2017-12-25T04:12:51.209Z,0
2017-12-25T04:13:51.477Z,0
2017-12-25T04:14:51.740Z,0
2017-12-25T04:15:51.752Z,0
2017-12-25T04:16:52.018Z,0
2017-12-25T04:17:51.782Z,0
2017-12-25T04:18:51.789Z,0
2017-12-25T04:19:51.599Z,0
2017-12-25T04:20:52.073Z,0
2017-12-25T04:21:51.830Z,0
2017-12-25T04:22:52.096Z,0
2017-12-25T04:23:51.859Z,0
2017-12-25T04:24:52.121Z,0
2017-12-25T04:25:52.129Z,0
2017-12-25T04:26:52.150Z,0
2017-12-25T04:27:52.164Z,0
2017-12-25T04:28:51.918Z,0
2017-12-25T04:29:52.176Z,0
2017-12-25T04:30:52.194Z,0
2017-12-25T04:31:52.213Z,0
2017-12-25T04:32:52.217Z,0
2017-12-25T04:33:52.234Z,0
2017-12-25T04:34:51.788Z,0
2017-12-25T04:35:52.011Z,0
2017-12-25T04:36:51.778Z,0
2017-12-25T04:37:51.777Z,0
2017-12-25T04:38:52.043Z,0
2017-12-25T04:39:52.310Z,0
2017-12-25T04:40:52.318Z,0
2017-12-25T04:41:51.829Z,0
2017-12-25T04:42:52.340Z,0
2017-12-25T04:43:52.106Z,0
2017-12-25T04:44:51.860Z,0
2017-12-25T04:45:51.874Z,0
2017-12-25T04:46:52.231Z,0
2017-12-25T04:47:51.902Z,0
2017-12-25T04:48:51.660Z,0
2017-12-25T04:49:52.478Z,0
2017-12-25T04:50:52.195Z,0
2017-12-25T04:51:52.200Z,0
2017-12-25T04:52:52.470Z,0
2017-12-25T04:53:52.687Z,0
2017-12-25T04:54:52.492Z,0
2017-12-25T04:55:51.744Z,0
2017-12-25T04:56:52.515Z,0
2017-12-25T04:57:52.283Z,0
2017-12-25T04:58:52.322Z,0
2017-12-25T04:59:52.053Z,0
2017-12-25T05:00:52.064Z,0
2017-12-25T05:01:52.078Z,0
2017-12-25T05:02:52.342Z,0
2017-12-25T05:03:52.620Z,0
2017-12-25T05:04:52.415Z,0
2017-12-25T05:05:52.380Z,0
2017-12-25T05:06:52.139Z,0
2017-12-25T05:07:52.409Z,0
2017-12-25T05:08:52.688Z,0
2017-12-25T05:09:52.678Z,0
2017-12-25T05:10:52.441Z,0
2017-12-25T05:11:52.729Z,0
2017-12-25T05:12:52.729Z,0
2017-12-25T05:13:52.503Z,0
2017-12-25T05:14:52.573Z,0
2017-12-25T05:15:52.758Z,0
2017-12-25T05:16:52.521Z,0
2017-12-25T05:17:52.788Z,0
2017-12-25T05:18:52.807Z,0
2017-12-25T05:19:52.609Z,0
2017-12-25T05:20:52.818Z,0
2017-12-25T05:21:52.839Z,0
2017-12-25T05:22:52.603Z,0
2017-12-25T05:23:52.615Z,0
2017-12-25T05:24:52.876Z,0
2017-12-25T05:25:52.642Z,0
2017-12-25T05:26:52.902Z,0
2017-12-25T05:27:52.664Z,0
2017-12-25T05:28:52.933Z,0
2017-12-25T05:29:52.792Z,0
2017-12-25T05:30:52.700Z,0
2017-12-25T05:31:52.849Z,0
2017-12-25T05:32:52.980Z,0
2017-12-25T05:33:52.990Z,0
2017-12-25T05:34:52.806Z,0
2017-12-25T05:35:53.026Z,0
2017-12-25T05:36:53.033Z,0
2017-12-25T05:37:53.042Z,0
2017-12-25T05:38:52.802Z,0
2017-12-25T05:39:52.566Z,0
2017-12-25T05:40:52.577Z,0
2017-12-25T05:41:53.097Z,0
2017-12-25T05:42:53.127Z,0
2017-12-25T05:43:53.117Z,0
2017-12-25T05:44:52.879Z,0
2017-12-25T05:45:53.144Z,0
2017-12-25T05:46:52.651Z,0
2017-12-25T05:47:52.919Z,0
2017-12-25T05:48:53.183Z,0
2017-12-25T05:49:52.992Z,0
2017-12-25T05:50:53.210Z,0
2017-12-25T05:51:52.965Z,0
2017-12-25T05:52:53.003Z,0
2017-12-25T05:53:52.995Z,0
2017-12-25T05:54:52.765Z,0
2017-12-25T05:55:53.289Z,0
2017-12-25T05:56:53.034Z,0
2017-12-25T05:57:53.317Z,0
2017-12-25T05:58:53.052Z,0
2017-12-25T05:59:53.320Z,0
2017-12-25T06:00:53.083Z,0
2017-12-25T06:01:53.093Z,0
2017-12-25T06:02:53.363Z,0
2017-12-25T06:03:53.378Z,0
2017-12-25T06:04:53.181Z,0
2017-12-25T06:05:53.403Z,0
2017-12-25T06:06:53.413Z,0
2017-12-25T06:07:53.193Z,0
2017-12-25T06:08:52.930Z,0
2017-12-25T06:09:53.454Z,0
2017-12-25T06:10:52.959Z,0
2017-12-25T06:11:52.967Z,0
2017-12-25T06:12:53.488Z,0
2017-12-25T06:13:53.256Z,0
2017-12-25T06:14:53.263Z,0
2017-12-25T06:15:53.017Z,0
2017-12-25T06:16:53.544Z,0
2017-12-25T06:17:53.299Z,0
2017-12-25T06:18:53.320Z,0
2017-12-25T06:19:53.585Z,0
2017-12-25T06:20:53.080Z,0
2017-12-25T06:21:53.345Z,0
2017-12-25T06:22:53.612Z,0
2017-12-25T06:23:52.865Z,0
2017-12-25T06:24:53.644Z,0
2017-12-25T06:25:53.345Z,0
2017-12-25T06:26:53.414Z,0
2017-12-25T06:27:53.681Z,0
2017-12-25T06:28:53.802Z,0
2017-12-25T06:29:53.454Z,0
2017-12-25T06:30:53.466Z,0
2017-12-25T06:31:53.727Z,4
2017-12-25T06:32:53.742Z,0
2017-12-25T06:33:53.499Z,4
2017-12-25T06:34:53.517Z,0
2017-12-25T06:35:53.524Z,4
2017-12-25T06:36:53.281Z,4
2017-12-25T06:37:53.808Z,4
2017-12-25T06:38:53.864Z,8
2017-12-25T06:39:53.573Z,8
2017-12-25T06:40:53.837Z,8
2017-12-25T06:41:53.846Z,8
2017-12-25T06:42:53.623Z,12
2017-12-25T06:43:53.878Z,16
2017-12-25T06:44:53.644Z,16
2017-12-25T06:45:53.645Z,20
2017-12-25T06:46:53.666Z,20
2017-12-25T06:47:54.045Z,28
2017-12-25T06:48:53.439Z,28
2017-12-25T06:49:53.953Z,32
2017-12-25T06:50:53.757Z,32
2017-12-25T06:51:53.979Z,40
2017-12-25T06:52:53.502Z,40
2017-12-25T06:53:53.797Z,48
2017-12-25T06:54:53.757Z,52
2017-12-25T06:55:53.521Z,56
2017-12-25T06:56:53.531Z,64
2017-12-25T06:57:53.541Z,72
2017-12-25T06:58:53.803Z,72
2017-12-25T06:59:54.083Z,84
2017-12-25T07:00:54.093Z,92
2017-12-25T07:01:54.101Z,96
2017-12-25T07:02:54.113Z,100
2017-12-25T07:03:54.125Z,108
2017-12-25T07:04:54.135Z,116
2017-12-25T07:05:53.898Z,120
2017-12-25T07:06:54.184Z,128
2017-12-25T07:07:54.182Z,136
2017-12-25T07:08:53.989Z,144
2017-12-25T07:09:53.971Z,156
2017-12-25T07:10:53.962Z,168
2017-12-25T07:11:53.722Z,180
2017-12-25T07:12:53.985Z,192
2017-12-25T07:13:54.251Z,200
2017-12-25T07:14:54.272Z,216
2017-12-25T07:15:53.774Z,224
2017-12-25T07:16:54.052Z,232
2017-12-25T07:17:54.050Z,244
2017-12-25T07:18:54.065Z,256
2017-12-25T07:19:54.332Z,268
2017-12-25T07:20:54.085Z,276
2017-12-25T07:21:54.108Z,292
2017-12-25T07:22:54.371Z,312
2017-12-25T07:23:54.379Z,332
2017-12-25T07:24:54.441Z,352
2017-12-25T07:25:54.158Z,368
2017-12-25T07:26:54.422Z,388
2017-12-25T07:27:54.188Z,404
2017-12-25T07:28:54.442Z,416
2017-12-25T07:29:54.466Z,428
2017-12-25T07:30:54.466Z,432
2017-12-25T07:31:54.485Z,452
2017-12-25T07:32:54.500Z,476
2017-12-25T07:33:54.509Z,504
2017-12-25T07:34:54.530Z,564
2017-12-25T07:35:54.315Z,584
2017-12-25T07:36:54.553Z,636
2017-12-25T07:37:54.553Z,664
2017-12-25T07:38:54.559Z,704
2017-12-25T07:39:54.127Z,720
2017-12-25T07:40:54.605Z,744
2017-12-25T07:41:54.619Z,796
2017-12-25T07:42:54.373Z,820
2017-12-25T07:43:54.395Z,880
2017-12-25T07:44:54.656Z,888
2017-12-25T07:45:54.666Z,940
2017-12-25T07:46:54.423Z,920
2017-12-25T07:47:54.703Z,940
2017-12-25T07:48:54.703Z,920
2017-12-25T07:49:54.473Z,940
2017-12-25T07:50:54.233Z,972
2017-12-25T07:51:54.498Z,960
2017-12-25T07:52:54.249Z,1064
2017-12-25T07:53:54.513Z,1072
2017-12-25T07:54:54.681Z,1196
2017-12-25T07:55:54.792Z,1232
2017-12-25T07:56:54.820Z,1364
2017-12-25T07:57:54.839Z,1388
2017-12-25T07:58:54.579Z,1444
2017-12-25T07:59:54.605Z,1484
2017-12-25T08:00:54.608Z,1492
2017-12-25T08:01:54.624Z,1524
2017-12-25T08:02:54.889Z,1608
2017-12-25T08:03:54.403Z,1632
2017-12-25T08:04:54.923Z,1632
2017-12-25T08:05:54.678Z,1652
2017-12-25T08:06:54.698Z,1728
2017-12-25T08:07:54.199Z,1764
2017-12-25T08:08:54.730Z,1904
2017-12-25T08:09:55.033Z,2040
2017-12-25T08:10:54.746Z,2264
2017-12-25T08:11:54.516Z,2292
2017-12-25T08:12:55.034Z,2332
2017-12-25T08:13:54.787Z,2408
2017-12-25T08:14:54.546Z,2632
2017-12-25T08:15:55.059Z,2764
2017-12-25T08:16:55.081Z,2856
2017-12-25T08:17:54.841Z,3156
2017-12-25T08:18:54.608Z,3232
2017-12-25T08:19:54.872Z,3044
2017-12-25T08:20:54.981Z,2972
2017-12-25T08:21:54.647Z,2864
2017-12-25T08:22:54.657Z,2948
2017-12-25T08:23:54.929Z,3048
2017-12-25T08:24:54.738Z,3176
2017-12-25T08:25:55.219Z,3252
2017-12-25T08:26:54.966Z,3316
2017-12-25T08:27:55.241Z,3468
2017-12-25T08:28:54.738Z,3588
2017-12-25T08:29:54.757Z,3576
2017-12-25T08:30:55.279Z,3656
2017-12-25T08:31:54.780Z,3504
2017-12-25T08:32:55.046Z,3532
2017-12-25T08:33:55.066Z,3376
2017-12-25T08:34:55.080Z,3288
2017-12-25T08:35:55.348Z,3316
2017-12-25T08:36:54.849Z,3352
2017-12-25T08:37:55.411Z,3488
2017-12-25T08:38:55.134Z,3676
2017-12-25T08:39:55.194Z,3900
2017-12-25T08:40:55.409Z,4180
2017-12-25T08:41:55.173Z,4324
2017-12-25T08:42:55.448Z,4244
2017-12-25T08:43:54.959Z,4240
2017-12-25T08:44:55.223Z,4344
2017-12-25T08:45:55.487Z,4352
2017-12-25T08:46:55.500Z,4508
2017-12-25T08:47:55.255Z,4540
2017-12-25T08:48:55.268Z,4752
2017-12-25T08:49:55.032Z,4808
2017-12-25T08:50:55.306Z,5060
2017-12-25T08:51:55.564Z,5408
2017-12-25T08:52:55.594Z,5396
2017-12-25T08:53:55.342Z,5608
2017-12-25T08:54:55.656Z,5684
2017-12-25T08:55:55.623Z,5820
2017-12-25T08:56:55.130Z,5764
2017-12-25T08:57:55.395Z,5844
2017-12-25T08:58:55.662Z,5884
2017-12-25T08:59:55.773Z,5832
2017-12-25T09:00:55.689Z,5564
2017-12-25T09:01:55.200Z,5112
2017-12-25T09:02:55.471Z,4592
2017-12-25T09:03:55.481Z,4084
2017-12-25T09:04:55.503Z,3864
2017-12-25T09:05:55.510Z,3836
2017-12-25T09:06:55.775Z,3996
2017-12-25T09:07:55.280Z,4152
2017-12-25T09:08:55.555Z,4340
2017-12-25T09:09:55.610Z,4480
2017-12-25T09:10:55.323Z,4496
2017-12-25T09:11:55.589Z,4432
2017-12-25T09:12:55.608Z,4356
2017-12-25T09:13:55.880Z,4540
2017-12-25T09:14:55.881Z,4616
2017-12-25T09:15:55.647Z,4400
2017-12-25T09:16:55.668Z,4296
2017-12-25T09:17:55.418Z,4600
2017-12-25T09:18:55.692Z,5336
2017-12-25T09:19:56.267Z,5564
2017-12-25T09:20:55.972Z,5588
2017-12-25T09:21:55.982Z,5240
2017-12-25T09:22:55.994Z,5032
2017-12-25T09:23:56.018Z,4728
2017-12-25T09:24:56.074Z,4972
2017-12-25T09:25:55.534Z,5576
2017-12-25T09:26:55.823Z,5400
2017-12-25T09:27:55.815Z,5608
2017-12-25T09:28:55.836Z,6016
2017-12-25T09:29:56.106Z,5820
2017-12-25T09:30:55.604Z,6300
2017-12-25T09:31:55.624Z,6184
2017-12-25T09:32:55.630Z,5780
2017-12-25T09:33:56.154Z,6700
2017-12-25T09:34:55.916Z,7328
2017-12-25T09:35:56.185Z,7264
2017-12-25T09:36:56.191Z,6936
2017-12-25T09:37:56.207Z,7020
2017-12-25T09:38:55.970Z,6860
2017-12-25T09:39:56.052Z,6952
2017-12-25T09:40:55.749Z,6972
2017-12-25T09:41:56.006Z,6852
2017-12-25T09:42:56.297Z,6980
2017-12-25T09:43:56.044Z,6896
2017-12-25T09:44:56.063Z,6944
2017-12-25T09:45:56.315Z,6984
2017-12-25T09:46:56.082Z,6908
2017-12-25T09:47:56.096Z,6952
2017-12-25T09:48:56.363Z,6912
2017-12-25T09:49:55.867Z,6928
2017-12-25T09:50:56.394Z,6860
2017-12-25T09:51:56.152Z,6868
2017-12-25T09:52:55.927Z,6836
2017-12-25T09:53:56.182Z,10348
2017-12-25T09:54:56.250Z,22560
2017-12-25T09:55:56.211Z,30080
2017-12-25T09:56:56.478Z,29664
2017-12-25T09:57:56.246Z,29856
2017-12-25T09:58:56.563Z,30400
2017-12-25T09:59:56.332Z,31008
2017-12-25T10:00:56.292Z,30624
2017-12-25T10:01:56.576Z,30784
2017-12-25T10:02:56.348Z,30624
2017-12-25T10:03:56.591Z,30048
2017-12-25T10:04:56.350Z,31008
2017-12-25T10:05:56.621Z,33408
2017-12-25T10:06:56.392Z,33440
2017-12-25T10:07:56.411Z,31968
2017-12-25T10:08:56.675Z,32672
2017-12-25T10:09:56.767Z,33696
2017-12-25T10:10:56.471Z,34688
2017-12-25T10:11:56.232Z,34912
2017-12-25T10:12:56.518Z,35584
2017-12-25T10:13:56.523Z,36448
2017-12-25T10:14:56.545Z,34400
2017-12-25T10:15:56.822Z,33408
2017-12-25T10:16:56.603Z,32896
2017-12-25T10:17:56.916Z,32064
2017-12-25T10:18:56.625Z,33856
2017-12-25T10:19:56.646Z,38368
2017-12-25T10:20:56.739Z,40960
2017-12-25T10:21:56.448Z,41792
2017-12-25T10:22:56.971Z,42048
2017-12-25T10:23:56.992Z,41088
2017-12-25T10:24:56.808Z,41504
2017-12-25T10:25:57.037Z,41824
2017-12-25T10:26:56.556Z,40608
2017-12-25T10:27:56.838Z,41408
2017-12-25T10:28:57.110Z,40928
2017-12-25T10:29:57.132Z,41888
2017-12-25T10:30:57.156Z,43712
2017-12-25T10:31:56.928Z,44768
2017-12-25T10:32:56.956Z,44352
2017-12-25T10:33:57.229Z,45120
2017-12-25T10:34:57.051Z,46304
2017-12-25T10:35:57.038Z,46816
2017-12-25T10:36:57.055Z,45024
2017-12-25T10:37:57.332Z,42336
2017-12-25T10:38:57.110Z,38432
2017-12-25T10:39:57.182Z,39488
2017-12-25T10:40:57.409Z,46496
2017-12-25T10:41:57.435Z,49440
2017-12-25T10:42:57.457Z,45888
2017-12-25T10:43:56.976Z,48160
2017-12-25T10:44:57.517Z,48416
2017-12-25T10:45:57.284Z,45344
2017-12-25T10:46:57.313Z,48960
2017-12-25T10:47:57.086Z,48768
2017-12-25T10:48:57.368Z,46528
2017-12-25T10:49:57.410Z,49696
2017-12-25T10:50:57.676Z,55264
2017-12-25T10:51:57.462Z,56416
2017-12-25T10:52:56.969Z,51840
2017-12-25T10:53:57.771Z,48768
2017-12-25T10:54:57.830Z,49824
2017-12-25T10:55:57.306Z,52160
2017-12-25T10:56:57.844Z,55456
2017-12-25T10:57:57.608Z,52000
2017-12-25T10:58:57.641Z,46848
2017-12-25T10:59:57.684Z,43616
2017-12-25T11:00:57.441Z,41376
2017-12-25T11:01:57.470Z,39456
2017-12-25T11:02:57.504Z,37376
2017-12-25T11:03:57.775Z,36800
2017-12-25T11:04:58.070Z,37024
2017-12-25T11:05:57.598Z,36672
2017-12-25T11:06:57.859Z,35424
2017-12-25T11:07:57.900Z,33728
2017-12-25T11:08:57.914Z,32384
2017-12-25T11:09:57.992Z,30688
2017-12-25T11:10:58.225Z,30112
2017-12-25T11:11:58.003Z,30272
2017-12-25T11:12:57.832Z,33152
2017-12-25T11:13:58.313Z,40352
2017-12-25T11:14:58.085Z,40864
2017-12-25T11:15:57.862Z,42720
2017-12-25T11:16:58.152Z,41120
2017-12-25T11:17:58.432Z,34336
2017-12-25T11:18:58.456Z,33952
2017-12-25T11:19:58.493Z,31232
2017-12-25T11:20:58.521Z,29696
2017-12-25T11:21:58.288Z,31456
2017-12-25T11:22:58.572Z,33600
2017-12-25T11:23:58.653Z,35104
2017-12-25T11:24:58.686Z,38176
2017-12-25T11:25:58.411Z,37472
2017-12-25T11:26:58.685Z,36896
2017-12-25T11:27:58.466Z,36576
2017-12-25T11:28:58.496Z,34848
2017-12-25T11:29:58.523Z,37600
2017-12-25T11:30:58.557Z,42752
2017-12-25T11:31:58.839Z,46304
2017-12-25T11:32:58.871Z,45824
2017-12-25T11:33:58.644Z,44704
2017-12-25T11:34:58.417Z,44352
2017-12-25T11:35:58.710Z,46816
2017-12-25T11:36:58.989Z,51456
2017-12-25T11:37:58.774Z,53280
2017-12-25T11:38:58.803Z,52064
2017-12-25T11:39:59.147Z,53056
2017-12-25T11:40:58.854Z,57504
2017-12-25T11:41:59.156Z,61248
2017-12-25T11:42:58.672Z,63136
2017-12-25T11:43:59.208Z,58656
2017-12-25T11:44:59.347Z,50560
2017-12-25T11:45:59.012Z,49344
2017-12-25T11:46:59.309Z,53888
2017-12-25T11:47:59.343Z,55072
2017-12-25T11:48:58.861Z,50560
2017-12-25T11:49:59.404Z,44928
2017-12-25T11:50:59.171Z,43264
2017-12-25T11:51:59.459Z,46720
2017-12-25T11:52:58.986Z,51136
2017-12-25T11:53:59.520Z,53792
2017-12-25T11:54:59.563Z,53312
2017-12-25T11:55:59.582Z,52000
2017-12-25T11:56:59.374Z,49056
2017-12-25T11:57:59.147Z,49376
2017-12-25T11:58:59.688Z,53152
2017-12-25T11:59:59.714Z,54880
2017-12-25T12:00:59.751Z,55648
2017-12-25T12:01:59.781Z,54144
2017-12-25T12:02:59.805Z,55712
2017-12-25T12:03:59.846Z,57056
2017-12-25T12:04:59.875Z,59584
2017-12-25T12:05:59.942Z,62816
2017-12-25T12:06:59.445Z,64064
2017-12-25T12:07:59.471Z,66272
2017-12-25T12:09:00.003Z,66624
2017-12-25T12:09:59.803Z,66048
2017-12-25T12:10:59.815Z,67392
2017-12-25T12:12:00.102Z,70016
2017-12-25T12:12:59.637Z,70400
2017-12-25T12:13:59.810Z,71648
2017-12-25T12:14:59.695Z,72064
2017-12-25T12:15:59.980Z,72672
2017-12-25T12:16:59.768Z,72480
2017-12-25T12:17:59.791Z,72960
2017-12-25T12:19:00.077Z,73920
2017-12-25T12:20:00.114Z,74400
2017-12-25T12:21:00.398Z,74976
2017-12-25T12:22:00.432Z,74720
2017-12-25T12:23:00.468Z,74656
2017-12-25T12:24:00.239Z,74368
2017-12-25T12:25:00.523Z,75904
2017-12-25T12:26:00.584Z,76064
2017-12-25T12:27:00.340Z,76512
2017-12-25T12:28:00.122Z,76128
2017-12-25T12:29:00.260Z,77376
2017-12-25T12:30:00.694Z,81504
2017-12-25T12:31:00.489Z,78016
2017-12-25T12:32:00.761Z,75680
2017-12-25T12:33:00.790Z,73632
2017-12-25T12:34:00.824Z,68704
2017-12-25T12:35:00.355Z,69472
2017-12-25T12:36:00.636Z,76992
2017-12-25T12:37:00.777Z,79296
2017-12-25T12:38:00.960Z,78688
2017-12-25T12:39:01.041Z,77504
2017-12-25T12:40:00.780Z,78880
2017-12-25T12:41:01.073Z,77248
2017-12-25T12:42:00.592Z,81952
2017-12-25T12:43:01.127Z,82752
2017-12-25T12:44:01.216Z,80640
2017-12-25T12:45:00.966Z,78848
2017-12-25T12:46:01.276Z,77152
2017-12-25T12:47:00.757Z,74656
2017-12-25T12:48:00.792Z,75680
2017-12-25T12:49:01.126Z,75584
2017-12-25T12:50:01.369Z,74432
2017-12-25T12:51:01.392Z,74944
2017-12-25T12:52:01.175Z,74720
2017-12-25T12:53:01.210Z,74496
2017-12-25T12:54:01.247Z,76256
2017-12-25T12:55:01.554Z,75008
2017-12-25T12:56:01.309Z,71520
2017-12-25T12:57:01.364Z,68960
2017-12-25T12:58:01.630Z,64640
2017-12-25T12:59:01.206Z,64704
2017-12-25T13:00:01.197Z,68608
2017-12-25T13:01:01.234Z,70880
2017-12-25T13:02:01.759Z,73696
2017-12-25T13:03:01.562Z,76800
2017-12-25T13:04:01.830Z,78304
2017-12-25T13:05:01.869Z,77152
2017-12-25T13:06:02.024Z,75456
2017-12-25T13:07:01.928Z,74080
2017-12-25T13:08:01.964Z,74304
2017-12-25T13:09:01.750Z,76544
2017-12-25T13:10:02.039Z,76160
2017-12-25T13:11:02.063Z,60992
2017-12-25T13:12:02.098Z,42336
2017-12-25T13:13:02.095Z,26208
2017-12-25T13:14:01.927Z,13420
2017-12-25T13:15:02.162Z,5260
2017-12-25T13:16:02.196Z,4348
2017-12-25T13:17:02.246Z,4336
2017-12-25T13:18:02.110Z,4296
2017-12-25T13:19:02.071Z,4252
2017-12-25T13:20:02.107Z,4228
2017-12-25T13:21:02.131Z,4216
2017-12-25T13:22:02.159Z,4192
2017-12-25T13:23:02.442Z,4156
2017-12-25T13:24:02.479Z,4100
2017-12-25T13:25:02.506Z,4116
2017-12-25T13:26:02.536Z,4088
2017-12-25T13:27:02.292Z,4028
2017-12-25T13:28:02.592Z,4016
2017-12-25T13:29:02.405Z,4008
2017-12-25T13:30:02.387Z,3944
2017-12-25T13:31:02.666Z,3840
2017-12-25T13:32:02.692Z,3784
2017-12-25T13:33:02.454Z,3776
2017-12-25T13:34:02.734Z,3756
2017-12-25T13:35:02.756Z,3728
2017-12-25T13:36:02.531Z,3700
2017-12-25T13:37:02.556Z,3680
2017-12-25T13:38:02.585Z,3656
2017-12-25T13:39:02.857Z,3612
2017-12-25T13:40:02.627Z,3584
2017-12-25T13:41:02.915Z,3568
2017-12-25T13:42:02.677Z,3560
2017-12-25T13:43:02.952Z,3532
2017-12-25T13:44:02.778Z,3496
2017-12-25T13:45:03.005Z,3472
2017-12-25T13:46:02.537Z,3456
2017-12-25T13:47:02.800Z,3448
2017-12-25T13:48:03.070Z,3440
2017-12-25T13:49:03.097Z,3424
2017-12-25T13:50:03.112Z,3408
2017-12-25T13:51:03.143Z,3392
2017-12-25T13:52:02.654Z,3368
2017-12-25T13:53:03.177Z,3344
2017-12-25T13:54:03.197Z,3324
2017-12-25T13:55:03.224Z,3292